To NAV CANADA Home Page Login to a new session Search on AWWS site Feedback and Comments Disclaimer Vers la page française équivalente Tips FAQ What's new on the site To the Forecasts and Observations / NOTAM section To "File a Flight Plan" website Publications and other links Update of the User's profile FIC Telephone Numbers My Weather Data Folder Route Weather Data Regional Weather Data Local Weather Data To the Forecasts and Observations / NOTAM section
Request Generated 04/20/2014 at 05:43:08 UTC . Weather information available at that time is displayed.

METAR/TAF

SLAVE LAKE/AB    (show WxCam)

METAR CYZH 200500Z AUTO 10004KT 9SM SCT140 06/M02 A2969 RMK SLP070=
METAR CYZH 200400Z AUTO 13006KT 9SM BKN095 BKN180 BKN210 06/M01 A2968
RMK SLP070=
METAR CYZH 200300Z AUTO 10004KT 9SM FEW095 08/M01 A2967 RMK SLP069=

TAF CYZH 200038Z 2001/2013 VRB02KT P6SM FEW080
BECMG 2004/2006 12005KT
FM200600 14005KT P6SM BKN100 TEMPO 2008/2011 P6SM -SHRA BKN050
FM201100 VRB03KT P6SM -SHRA SCT015 OVC025 TEMPO 2011/2013 5SM
-SHRA BR BKN015
RMK FCST BASED ON AUTO OBS. NXT FCST BY 200700Z=
Your time UTC time
Weather data provided by Environment Canada and NAV CANADA